sensor_id;sensor_type;location;lat;lon;timestamp;temperature;humidity
16076;DHT22;8142;48.242;11.644;2023-10-13T00:02:02;18.10;99.90
16076;DHT22;8142;48.242;11.644;2023-10-13T00:04:32;18.10;99.90
16076;DHT22;8142;48.242;11.644;2023-10-13T00:07:04;18.10;99.90
16076;DHT22;8142;48.242;11.644;2023-10-13T00:09:30;18.00;99.90
16076;DHT22;8142;48.242;11.644;2023-10-13T00:12:04;18.10;99.90
16076;DHT22;8142;48.242;11.644;2023-10-13T00:14:33;18.00;99.90
16076;DHT22;8142;48.242;11.644;2023-10-13T00:17:04;18.00;99.90
16076;DHT22;8142;48.242;11.644;2023-10-13T00:19:35;17.90;99.90
16076;DHT22;8142;48.242;11.644;2023-10-13T00:22:15;17.90;99.90
16076;DHT22;8142;48.242;11.644;2023-10-13T00:24:43;17.90;99.90
16076;DHT22;8142;48.242;11.644;2023-10-13T00:27:21;17.90;99.90
16076;DHT22;8142;48.242;11.644;2023-10-13T00:29:57;17.80;99.90
16076;DHT22;8142;48.242;11.644;2023-10-13T00:32:51;17.80;99.90
16076;DHT22;8142;48.242;11.644;2023-10-13T00:35:21;17.70;99.90
16076;DHT22;8142;48.242;11.644;2023-10-13T00:38:03;17.70;99.90
16076;DHT22;8142;48.242;11.644;2023-10-13T00:40:31;17.70;99.90
16076;DHT22;8142;48.242;11.644;2023-10-13T00:42:58;17.70;99.90
16076;DHT22;8142;48.242;11.644;2023-10-13T00:45:46;17.70;99.90
16076;DHT22;8142;48.242;11.644;2023-10-13T00:48:14;17.70;99.90
16076;DHT22;8142;48.242;11.644;2023-10-13T00:50:42;17.70;99.90
16076;DHT22;8142;48.242;11.644;2023-10-13T00:53:11;17.70;99.90
16076;DHT22;8142;48.242;11.644;2023-10-13T00:55:38;17.70;99.90
16076;DHT22;8142;48.242;11.644;2023-10-13T00:58:07;17.70;99.90
16076;DHT22;8142;48.242;11.644;2023-10-13T01:00:38;17.60;99.90
16076;DHT22;8142;48.242;11.644;2023-10-13T01:03:13;17.60;99.90
16076;DHT22;8142;48.242;11.644;2023-10-13T01:05:40;17.50;99.90
16076;DHT22;8142;48.242;11.644;2023-10-13T01:08:07;17.60;99.90
16076;DHT22;8142;48.242;11.644;2023-10-13T01:10:37;17.60;99.90
16076;DHT22;8142;48.242;11.644;2023-10-13T01:13:03;17.50;99.90
16076;DHT22;8142;48.242;11.644;2023-10-13T01:15:30;17.50;99.90
16076;DHT22;8142;48.242;11.644;2023-10-13T01:18:08;17.40;99.90
16076;DHT22;8142;48.242;11.644;2023-10-13T01:20:38;17.30;99.90
16076;DHT22;8142;48.242;11.644;2023-10-13T01:23:18;17.30;99.90
16076;DHT22;8142;48.242;11.644;2023-10-13T01:25:45;17.30;99.90
16076;DHT22;8142;48.242;11.644;2023-10-13T01:28:11;17.20;99.90
16076;DHT22;8142;48.242;11.644;2023-10-13T01:30:44;17.20;99.90
16076;DHT22;8142;48.242;11.644;2023-10-13T01:33:16;17.00;99.90
16076;DHT22;8142;48.242;11.644;2023-10-13T01:35:42;17.10;99.90
16076;DHT22;8142;48.242;11.644;2023-10-13T01:38:14;17.10;99.90
16076;DHT22;8142;48.242;11.644;2023-10-13T01:40:40;17.00;99.90
16076;DHT22;8142;48.242;11.644;2023-10-13T01:43:05;17.00;99.90
16076;DHT22;8142;48.242;11.644;2023-10-13T01:45:40;16.90;99.90
16076;DHT22;8142;48.242;11.644;2023-10-13T01:48:12;16.90;99.90
16076;DHT22;8142;48.242;11.644;2023-10-13T01:50:46;16.90;99.90
16076;DHT22;8142;48.242;11.644;2023-10-13T01:53:14;16.80;99.90
16076;DHT22;8142;48.242;11.644;2023-10-13T01:55:43;16.80;99.90
16076;DHT22;8142;48.242;11.644;2023-10-13T01:58:13;16.80;99.90
16076;DHT22;8142;48.242;11.644;2023-10-13T02:00:44;16.80;99.90
16076;DHT22;8142;48.242;11.644;2023-10-13T02:03:11;16.80;99.90
16076;DHT22;8142;48.242;11.644;2023-10-13T02:05:43;16.70;99.90
16076;DHT22;8142;48.242;11.644;2023-10-13T02:08:22;16.70;99.90
16076;DHT22;8142;48.242;11.644;2023-10-13T02:10:50;16.70;99.90
16076;DHT22;8142;48.242;11.644;2023-10-13T02:13:17;16.70;99.90
16076;DHT22;8142;48.242;11.644;2023-10-13T02:15:44;16.70;99.90
16076;DHT22;8142;48.242;11.644;2023-10-13T02:18:14;16.70;99.90
16076;DHT22;8142;48.242;11.644;2023-10-13T02:20:41;16.70;99.90
16076;DHT22;8142;48.242;11.644;2023-10-13T02:23:09;16.70;99.90
16076;DHT22;8142;48.242;11.644;2023-10-13T02:25:36;16.60;99.90
16076;DHT22;8142;48.242;11.644;2023-10-13T02:28:09;16.60;99.90
16076;DHT22;8142;48.242;11.644;2023-10-13T02:30:47;16.60;99.90
16076;DHT22;8142;48.242;11.644;2023-10-13T02:33:19;16.60;99.90
16076;DHT22;8142;48.242;11.644;2023-10-13T02:35:48;16.60;99.90
16076;DHT22;8142;48.242;11.644;2023-10-13T02:38:20;16.50;99.90
16076;DHT22;8142;48.242;11.644;2023-10-13T02:40:54;16.50;99.90
16076;DHT22;8142;48.242;11.644;2023-10-13T02:43:21;16.40;99.90
16076;DHT22;8142;48.242;11.644;2023-10-13T02:45:54;16.40;99.90
16076;DHT22;8142;48.242;11.644;2023-10-13T02:48:27;16.40;99.90
16076;DHT22;8142;48.242;11.644;2023-10-13T02:50:59;16.30;99.90
16076;DHT22;8142;48.242;11.644;2023-10-13T02:53:31;16.30;99.90
16076;DHT22;8142;48.242;11.644;2023-10-13T02:55:57;16.20;99.90
16076;DHT22;8142;48.242;11.644;2023-10-13T02:58:30;16.20;99.90
16076;DHT22;8142;48.242;11.644;2023-10-13T03:01:09;16.20;99.90
16076;DHT22;8142;48.242;11.644;2023-10-13T03:03:51;16.00;99.90
16076;DHT22;8142;48.242;11.644;2023-10-13T03:06:21;16.00;99.90
16076;DHT22;8142;48.242;11.644;2023-10-13T03:08:52;15.80;99.90
16076;DHT22;8142;48.242;11.644;2023-10-13T03:11:18;15.60;99.90
16076;DHT22;8142;48.242;11.644;2023-10-13T03:13:50;15.40;99.90
16076;DHT22;8142;48.242;11.644;2023-10-13T03:16:18;15.20;99.90
16076;DHT22;8142;48.242;11.644;2023-10-13T03:18:48;14.90;99.90
16076;DHT22;8142;48.242;11.644;2023-10-13T03:21:20;14.70;99.90
16076;DHT22;8142;48.242;11.644;2023-10-13T03:23:55;14.60;99.90
16076;DHT22;8142;48.242;11.644;2023-10-13T03:26:22;14.40;99.90
16076;DHT22;8142;48.242;11.644;2023-10-13T03:28:48;14.40;99.90
16076;DHT22;8142;48.242;11.644;2023-10-13T03:31:19;14.00;99.90
16076;DHT22;8142;48.242;11.644;2023-10-13T03:33:46;13.90;99.90
16076;DHT22;8142;48.242;11.644;2023-10-13T03:36:13;13.80;99.90
16076;DHT22;8142;48.242;11.644;2023-10-13T03:38:59;13.70;99.90
16076;DHT22;8142;48.242;11.644;2023-10-13T03:41:25;13.70;99.90
16076;DHT22;8142;48.242;11.644;2023-10-13T03:43:55;13.80;99.90
16076;DHT22;8142;48.242;11.644;2023-10-13T03:46:39;13.80;99.90
16076;DHT22;8142;48.242;11.644;2023-10-13T03:49:08;13.80;99.90
16076;DHT22;8142;48.242;11.644;2023-10-13T03:51:39;13.90;99.90
16076;DHT22;8142;48.242;11.644;2023-10-13T03:54:05;13.90;99.90
16076;DHT22;8142;48.242;11.644;2023-10-13T03:56:35;14.00;99.90
16076;DHT22;8142;48.242;11.644;2023-10-13T03:59:08;14.00;99.90
16076;DHT22;8142;48.242;11.644;2023-10-13T04:01:46;14.00;99.90
16076;DHT22;8142;48.242;11.644;2023-10-13T04:04:19;14.10;99.90
16076;DHT22;8142;48.242;11.644;2023-10-13T04:07:03;14.20;99.90
16076;DHT22;8142;48.242;11.644;2023-10-13T04:09:38;14.20;99.90
16076;DHT22;8142;48.242;11.644;2023-10-13T04:12:06;14.20;99.90
16076;DHT22;8142;48.242;11.644;2023-10-13T04:14:44;14.30;99.90
16076;DHT22;8142;48.242;11.644;2023-10-13T04:17:29;14.30;99.90
16076;DHT22;8142;48.242;11.644;2023-10-13T04:19:59;14.30;99.90
16076;DHT22;8142;48.242;11.644;2023-10-13T04:22:41;14.30;99.90
16076;DHT22;8142;48.242;11.644;2023-10-13T04:25:21;14.30;99.90
16076;DHT22;8142;48.242;11.644;2023-10-13T04:28:24;14.30;99.90
16076;DHT22;8142;48.242;11.644;2023-10-13T04:30:53;14.30;99.90
16076;DHT22;8142;48.242;11.644;2023-10-13T04:36:09;14.30;99.90
16076;DHT22;8142;48.242;11.644;2023-10-13T04:38:59;14.30;99.90
16076;DHT22;8142;48.242;11.644;2023-10-13T04:41:35;14.30;99.90
16076;DHT22;8142;48.242;11.644;2023-10-13T04:44:12;14.30;99.90
16076;DHT22;8142;48.242;11.644;2023-10-13T04:46:58;14.20;99.90
16076;DHT22;8142;48.242;11.644;2023-10-13T04:49:29;14.20;99.90
16076;DHT22;8142;48.242;11.644;2023-10-13T04:52:06;14.10;99.90
16076;DHT22;8142;48.242;11.644;2023-10-13T04:54:41;14.10;99.90
16076;DHT22;8142;48.242;11.644;2023-10-13T04:57:18;14.10;99.90
16076;DHT22;8142;48.242;11.644;2023-10-13T05:00:04;14.10;99.90
16076;DHT22;8142;48.242;11.644;2023-10-13T05:02:43;14.10;99.90
16076;DHT22;8142;48.242;11.644;2023-10-13T05:05:30;14.10;99.90
16076;DHT22;8142;48.242;11.644;2023-10-13T05:08:15;14.00;99.90
16076;DHT22;8142;48.242;11.644;2023-10-13T05:11:04;13.90;99.90
16076;DHT22;8142;48.242;11.644;2023-10-13T05:13:49;13.70;99.90
16076;DHT22;8142;48.242;11.644;2023-10-13T05:16:36;13.60;99.90
16076;DHT22;8142;48.242;11.644;2023-10-13T05:19:22;13.50;99.90
16076;DHT22;8142;48.242;11.644;2023-10-13T05:22:06;13.30;99.90
16076;DHT22;8142;48.242;11.644;2023-10-13T05:24:51;13.20;99.90
16076;DHT22;8142;48.242;11.644;2023-10-13T05:27:35;13.10;99.90
16076;DHT22;8142;48.242;11.644;2023-10-13T05:30:20;13.10;99.90
16076;DHT22;8142;48.242;11.644;2023-10-13T05:33:04;13.10;99.90
16076;DHT22;8142;48.242;11.644;2023-10-13T05:35:49;13.00;99.90
16076;DHT22;8142;48.242;11.644;2023-10-13T05:38:33;13.00;99.90
16076;DHT22;8142;48.242;11.644;2023-10-13T05:41:18;13.10;99.90
16076;DHT22;8142;48.242;11.644;2023-10-13T05:44:05;13.20;99.90
16076;DHT22;8142;48.242;11.644;2023-10-13T05:46:49;13.30;99.90
16076;DHT22;8142;48.242;11.644;2023-10-13T05:49:27;13.40;99.90
16076;DHT22;8142;48.242;11.644;2023-10-13T05:52:12;13.40;99.90
16076;DHT22;8142;48.242;11.644;2023-10-13T05:54:59;13.50;99.90
16076;DHT22;8142;48.242;11.644;2023-10-13T05:57:43;13.60;99.90
16076;DHT22;8142;48.242;11.644;2023-10-13T06:00:28;13.70;99.90
16076;DHT22;8142;48.242;11.644;2023-10-13T06:03:12;13.90;99.90
16076;DHT22;8142;48.242;11.644;2023-10-13T06:05:57;13.90;99.90
16076;DHT22;8142;48.242;11.644;2023-10-13T06:08:42;13.90;99.90
16076;DHT22;8142;48.242;11.644;2023-10-13T06:11:28;14.10;99.90
16076;DHT22;8142;48.242;11.644;2023-10-13T06:14:13;14.10;99.90
16076;DHT22;8142;48.242;11.644;2023-10-13T06:16:57;14.20;99.90
16076;DHT22;8142;48.242;11.644;2023-10-13T06:19:41;14.20;99.90
16076;DHT22;8142;48.242;11.644;2023-10-13T06:22:26;14.30;99.90
16076;DHT22;8142;48.242;11.644;2023-10-13T06:25:10;14.30;99.90
16076;DHT22;8142;48.242;11.644;2023-10-13T06:27:54;14.40;99.90
16076;DHT22;8142;48.242;11.644;2023-10-13T06:30:39;14.40;99.90
16076;DHT22;8142;48.242;11.644;2023-10-13T06:33:07;14.50;99.90
16076;DHT22;8142;48.242;11.644;2023-10-13T06:35:34;14.50;99.90
16076;DHT22;8142;48.242;11.644;2023-10-13T06:38:01;14.60;99.90
16076;DHT22;8142;48.242;11.644;2023-10-13T06:40:27;14.60;99.90
16076;DHT22;8142;48.242;11.644;2023-10-13T06:42:59;14.80;99.90
16076;DHT22;8142;48.242;11.644;2023-10-13T06:45:39;14.70;99.90
16076;DHT22;8142;48.242;11.644;2023-10-13T06:48:07;14.80;99.90
16076;DHT22;8142;48.242;11.644;2023-10-13T06:50:37;14.90;99.90
16076;DHT22;8142;48.242;11.644;2023-10-13T06:53:12;15.00;99.90
16076;DHT22;8142;48.242;11.644;2023-10-13T06:55:38;15.00;99.90
16076;DHT22;8142;48.242;11.644;2023-10-13T06:58:06;15.10;99.90
16076;DHT22;8142;48.242;11.644;2023-10-13T07:00:34;15.10;99.90
16076;DHT22;8142;48.242;11.644;2023-10-13T07:03:05;15.10;99.90
16076;DHT22;8142;48.242;11.644;2023-10-13T07:05:46;15.20;99.90
16076;DHT22;8142;48.242;11.644;2023-10-13T07:08:14;15.40;99.90
16076;DHT22;8142;48.242;11.644;2023-10-13T07:10:50;15.50;99.90
16076;DHT22;8142;48.242;11.644;2023-10-13T07:13:28;15.60;99.90
16076;DHT22;8142;48.242;11.644;2023-10-13T07:15:55;15.80;99.90
16076;DHT22;8142;48.242;11.644;2023-10-13T07:18:26;15.90;99.90
16076;DHT22;8142;48.242;11.644;2023-10-13T07:20:52;16.00;99.90
16076;DHT22;8142;48.242;11.644;2023-10-13T07:23:23;16.10;99.90
16076;DHT22;8142;48.242;11.644;2023-10-13T07:25:53;16.30;99.90
16076;DHT22;8142;48.242;11.644;2023-10-13T07:28:21;16.40;99.90
16076;DHT22;8142;48.242;11.644;2023-10-13T07:30:48;16.60;99.90
16076;DHT22;8142;48.242;11.644;2023-10-13T07:33:20;16.70;99.90
16076;DHT22;8142;48.242;11.644;2023-10-13T07:35:46;17.00;99.90
16076;DHT22;8142;48.242;11.644;2023-10-13T07:38:16;17.30;99.90
16076;DHT22;8142;48.242;11.644;2023-10-13T07:40:43;17.50;99.90
16076;DHT22;8142;48.242;11.644;2023-10-13T07:43:18;17.70;99.90
16076;DHT22;8142;48.242;11.644;2023-10-13T07:45:48;18.00;99.90
16076;DHT22;8142;48.242;11.644;2023-10-13T07:48:17;18.20;99.90
16076;DHT22;8142;48.242;11.644;2023-10-13T07:51:08;18.40;99.90
16076;DHT22;8142;48.242;11.644;2023-10-13T07:53:42;18.70;99.90
16076;DHT22;8142;48.242;11.644;2023-10-13T07:56:10;18.90;99.90
16076;DHT22;8142;48.242;11.644;2023-10-13T07:58:39;19.10;99.90
16076;DHT22;8142;48.242;11.644;2023-10-13T08:01:24;19.20;99.90
16076;DHT22;8142;48.242;11.644;2023-10-13T08:03:50;19.30;99.90
16076;DHT22;8142;48.242;11.644;2023-10-13T08:06:30;19.30;99.90
16076;DHT22;8142;48.242;11.644;2023-10-13T08:08:56;19.40;99.90
16076;DHT22;8142;48.242;11.644;2023-10-13T08:11:45;19.30;99.90
16076;DHT22;8142;48.242;11.644;2023-10-13T08:14:11;19.30;99.90
16076;DHT22;8142;48.242;11.644;2023-10-13T08:16:39;19.30;99.90
16076;DHT22;8142;48.242;11.644;2023-10-13T08:19:19;19.30;99.90
16076;DHT22;8142;48.242;11.644;2023-10-13T08:21:46;19.20;99.90
16076;DHT22;8142;48.242;11.644;2023-10-13T08:24:23;19.20;99.90
16076;DHT22;8142;48.242;11.644;2023-10-13T08:27:17;19.20;99.90
16076;DHT22;8142;48.242;11.644;2023-10-13T08:30:03;19.20;99.90
16076;DHT22;8142;48.242;11.644;2023-10-13T08:32:48;19.20;99.90
16076;DHT22;8142;48.242;11.644;2023-10-13T08:35:23;19.20;99.90
16076;DHT22;8142;48.242;11.644;2023-10-13T08:37:56;19.20;99.90
16076;DHT22;8142;48.242;11.644;2023-10-13T08:40:28;19.20;99.90
16076;DHT22;8142;48.242;11.644;2023-10-13T08:43:32;19.20;99.90
16076;DHT22;8142;48.242;11.644;2023-10-13T08:46:09;19.20;99.90
16076;DHT22;8142;48.242;11.644;2023-10-13T08:48:36;19.20;99.90
16076;DHT22;8142;48.242;11.644;2023-10-13T08:51:02;19.30;99.90
16076;DHT22;8142;48.242;11.644;2023-10-13T08:53:37;19.30;99.90
16076;DHT22;8142;48.242;11.644;2023-10-13T08:56:17;19.30;99.90
16076;DHT22;8142;48.242;11.644;2023-10-13T08:58:45;19.30;99.90
16076;DHT22;8142;48.242;11.644;2023-10-13T09:01:34;19.30;99.90
16076;DHT22;8142;48.242;11.644;2023-10-13T09:04:10;19.40;99.90
16076;DHT22;8142;48.242;11.644;2023-10-13T09:07:01;19.50;99.90
16076;DHT22;8142;48.242;11.644;2023-10-13T09:12:02;19.50;99.90
16076;DHT22;8142;48.242;11.644;2023-10-13T09:14:42;19.60;99.90
16076;DHT22;8142;48.242;11.644;2023-10-13T09:17:11;19.60;99.90
16076;DHT22;8142;48.242;11.644;2023-10-13T09:19:47;19.70;99.90
16076;DHT22;8142;48.242;11.644;2023-10-13T09:22:24;19.70;99.90
16076;DHT22;8142;48.242;11.644;2023-10-13T09:24:58;19.80;99.90
16076;DHT22;8142;48.242;11.644;2023-10-13T09:27:25;19.80;99.90
16076;DHT22;8142;48.242;11.644;2023-10-13T09:29:56;19.90;99.90
16076;DHT22;8142;48.242;11.644;2023-10-13T09:32:22;20.00;99.90
16076;DHT22;8142;48.242;11.644;2023-10-13T09:34:48;20.00;99.90
16076;DHT22;8142;48.242;11.644;2023-10-13T09:37:16;20.10;99.90
16076;DHT22;8142;48.242;11.644;2023-10-13T09:39:47;20.20;99.90
16076;DHT22;8142;48.242;11.644;2023-10-13T09:42:20;20.20;99.90
16076;DHT22;8142;48.242;11.644;2023-10-13T09:44:49;20.20;99.70
16076;DHT22;8142;48.242;11.644;2023-10-13T09:47:22;20.20;99.50
16076;DHT22;8142;48.242;11.644;2023-10-13T09:50:02;20.20;99.20
16076;DHT22;8142;48.242;11.644;2023-10-13T09:52:34;20.30;98.20
16076;DHT22;8142;48.242;11.644;2023-10-13T09:55:29;20.30;96.90
16076;DHT22;8142;48.242;11.644;2023-10-13T09:58:01;20.40;96.70
16076;DHT22;8142;48.242;11.644;2023-10-13T10:00:57;20.40;96.40
16076;DHT22;8142;48.242;11.644;2023-10-13T10:03:43;20.40;96.10
16076;DHT22;8142;48.242;11.644;2023-10-13T10:06:21;20.50;95.70
16076;DHT22;8142;48.242;11.644;2023-10-13T10:09:04;20.50;97.50
16076;DHT22;8142;48.242;11.644;2023-10-13T10:14:23;20.60;94.40
16076;DHT22;8142;48.242;11.644;2023-10-13T10:19:29;20.70;93.80
16076;DHT22;8142;48.242;11.644;2023-10-13T10:22:05;20.80;94.10
16076;DHT22;8142;48.242;11.644;2023-10-13T10:24:43;20.90;93.40
16076;DHT22;8142;48.242;11.644;2023-10-13T10:27:12;20.90;93.20
16076;DHT22;8142;48.242;11.644;2023-10-13T10:29:53;21.10;92.80
16076;DHT22;8142;48.242;11.644;2023-10-13T10:32:19;21.10;92.30
16076;DHT22;8142;48.242;11.644;2023-10-13T10:34:44;21.10;92.20
16076;DHT22;8142;48.242;11.644;2023-10-13T10:37:12;21.20;95.70
16076;DHT22;8142;48.242;11.644;2023-10-13T10:39:39;21.20;96.50
16076;DHT22;8142;48.242;11.644;2023-10-13T10:42:12;21.20;92.20
16076;DHT22;8142;48.242;11.644;2023-10-13T10:44:41;21.40;91.80
16076;DHT22;8142;48.242;11.644;2023-10-13T10:47:11;21.40;91.50
16076;DHT22;8142;48.242;11.644;2023-10-13T10:49:45;21.40;91.30
16076;DHT22;8142;48.242;11.644;2023-10-13T10:52:15;21.40;91.50
16076;DHT22;8142;48.242;11.644;2023-10-13T10:54:44;21.50;91.60
16076;DHT22;8142;48.242;11.644;2023-10-13T10:57:14;21.50;91.70
16076;DHT22;8142;48.242;11.644;2023-10-13T10:59:44;21.50;91.10
16076;DHT22;8142;48.242;11.644;2023-10-13T11:02:10;21.60;90.60
16076;DHT22;8142;48.242;11.644;2023-10-13T11:04:41;21.70;90.50
16076;DHT22;8142;48.242;11.644;2023-10-13T11:07:23;21.70;90.90
16076;DHT22;8142;48.242;11.644;2023-10-13T11:09:49;21.70;93.00
16076;DHT22;8142;48.242;11.644;2023-10-13T11:12:19;21.70;91.30
16076;DHT22;8142;48.242;11.644;2023-10-13T11:17:26;21.80;90.50
16076;DHT22;8142;48.242;11.644;2023-10-13T11:20:16;21.80;89.90
16076;DHT22;8142;48.242;11.644;2023-10-13T11:22:49;21.90;90.00
16076;DHT22;8142;48.242;11.644;2023-10-13T11:25:23;22.00;89.40
16076;DHT22;8142;48.242;11.644;2023-10-13T11:27:56;22.00;89.40
16076;DHT22;8142;48.242;11.644;2023-10-13T11:30:24;22.00;89.60
16076;DHT22;8142;48.242;11.644;2023-10-13T11:33:04;22.00;89.80
16076;DHT22;8142;48.242;11.644;2023-10-13T11:35:34;22.10;89.30
16076;DHT22;8142;48.242;11.644;2023-10-13T11:38:30;22.10;93.10
16076;DHT22;8142;48.242;11.644;2023-10-13T11:41:15;22.10;92.90
16076;DHT22;8142;48.242;11.644;2023-10-13T11:43:48;22.10;90.60
16076;DHT22;8142;48.242;11.644;2023-10-13T11:46:21;22.10;90.10
16076;DHT22;8142;48.242;11.644;2023-10-13T11:49:08;22.10;89.60
16076;DHT22;8142;48.242;11.644;2023-10-13T11:51:34;22.20;90.00
16076;DHT22;8142;48.242;11.644;2023-10-13T11:54:03;22.20;89.30
16076;DHT22;8142;48.242;11.644;2023-10-13T11:56:29;22.30;89.50
16076;DHT22;8142;48.242;11.644;2023-10-13T11:58:55;22.30;89.40
16076;DHT22;8142;48.242;11.644;2023-10-13T12:01:27;22.30;89.00
16076;DHT22;8142;48.242;11.644;2023-10-13T12:04:12;22.40;89.30
16076;DHT22;8142;48.242;11.644;2023-10-13T12:06:58;22.40;88.60
16076;DHT22;8142;48.242;11.644;2023-10-13T12:09:36;22.50;88.10
16076;DHT22;8142;48.242;11.644;2023-10-13T12:12:25;22.60;87.90
16076;DHT22;8142;48.242;11.644;2023-10-13T12:14:52;22.70;88.30
16076;DHT22;8142;48.242;11.644;2023-10-13T12:17:24;22.70;87.90
16076;DHT22;8142;48.242;11.644;2023-10-13T12:20:10;22.70;87.30
16076;DHT22;8142;48.242;11.644;2023-10-13T12:22:43;22.70;87.20
16076;DHT22;8142;48.242;11.644;2023-10-13T12:25:17;22.70;88.00
16076;DHT22;8142;48.242;11.644;2023-10-13T12:28:00;22.70;88.30
16076;DHT22;8142;48.242;11.644;2023-10-13T12:30:48;22.70;92.00
16076;DHT22;8142;48.242;11.644;2023-10-13T12:33:17;22.70;89.80
16076;DHT22;8142;48.242;11.644;2023-10-13T12:36:00;22.60;89.60
16076;DHT22;8142;48.242;11.644;2023-10-13T12:38:33;22.60;90.90
16076;DHT22;8142;48.242;11.644;2023-10-13T12:41:06;22.60;91.20
16076;DHT22;8142;48.242;11.644;2023-10-13T12:43:50;22.50;89.80
16076;DHT22;8142;48.242;11.644;2023-10-13T12:46:35;22.50;89.00
16076;DHT22;8142;48.242;11.644;2023-10-13T12:49:19;22.50;88.60
16076;DHT22;8142;48.242;11.644;2023-10-13T12:52:03;22.50;88.20
16076;DHT22;8142;48.242;11.644;2023-10-13T12:54:29;22.60;89.00
16076;DHT22;8142;48.242;11.644;2023-10-13T12:57:01;22.60;88.50
16076;DHT22;8142;48.242;11.644;2023-10-13T12:59:28;22.60;88.40
16076;DHT22;8142;48.242;11.644;2023-10-13T13:01:54;22.60;87.80
16076;DHT22;8142;48.242;11.644;2023-10-13T13:04:20;22.60;87.50
16076;DHT22;8142;48.242;11.644;2023-10-13T13:06:50;22.60;88.60
16076;DHT22;8142;48.242;11.644;2023-10-13T13:09:16;22.60;92.80
16076;DHT22;8142;48.242;11.644;2023-10-13T13:11:52;22.60;90.90
16076;DHT22;8142;48.242;11.644;2023-10-13T13:14:26;22.50;92.00
16076;DHT22;8142;48.242;11.644;2023-10-13T13:16:57;22.50;91.30
16076;DHT22;8142;48.242;11.644;2023-10-13T13:19:36;22.60;98.10
16076;DHT22;8142;48.242;11.644;2023-10-13T13:22:05;22.50;95.00
16076;DHT22;8142;48.242;11.644;2023-10-13T13:24:41;22.40;92.20
16076;DHT22;8142;48.242;11.644;2023-10-13T13:27:10;22.40;91.20
16076;DHT22;8142;48.242;11.644;2023-10-13T13:29:42;22.40;90.70
16076;DHT22;8142;48.242;11.644;2023-10-13T13:32:09;22.40;90.50
16076;DHT22;8142;48.242;11.644;2023-10-13T13:34:47;22.40;90.10
16076;DHT22;8142;48.242;11.644;2023-10-13T13:37:21;22.40;90.70
16076;DHT22;8142;48.242;11.644;2023-10-13T13:39:47;22.40;93.10
16076;DHT22;8142;48.242;11.644;2023-10-13T13:42:13;22.40;91.70
16076;DHT22;8142;48.242;11.644;2023-10-13T13:44:44;22.40;90.70
16076;DHT22;8142;48.242;11.644;2023-10-13T13:47:15;22.40;90.20
16076;DHT22;8142;48.242;11.644;2023-10-13T13:49:42;22.40;90.00
16076;DHT22;8142;48.242;11.644;2023-10-13T13:52:31;22.40;89.40
16076;DHT22;8142;48.242;11.644;2023-10-13T13:55:11;22.40;90.00
16076;DHT22;8142;48.242;11.644;2023-10-13T13:57:43;22.50;89.50
16076;DHT22;8142;48.242;11.644;2023-10-13T14:00:13;22.50;89.80
16076;DHT22;8142;48.242;11.644;2023-10-13T14:02:43;22.50;90.20
16076;DHT22;8142;48.242;11.644;2023-10-13T14:05:16;22.60;90.10
16076;DHT22;8142;48.242;11.644;2023-10-13T14:07:43;22.50;90.90
16076;DHT22;8142;48.242;11.644;2023-10-13T14:10:19;22.60;91.00
16076;DHT22;8142;48.242;11.644;2023-10-13T14:13:00;22.60;90.20
16076;DHT22;8142;48.242;11.644;2023-10-13T14:15:38;22.60;90.50
16076;DHT22;8142;48.242;11.644;2023-10-13T14:18:10;22.60;90.10
16076;DHT22;8142;48.242;11.644;2023-10-13T14:20:43;22.60;90.10
16076;DHT22;8142;48.242;11.644;2023-10-13T14:23:09;22.60;90.10
16076;DHT22;8142;48.242;11.644;2023-10-13T14:25:40;22.60;89.50
16076;DHT22;8142;48.242;11.644;2023-10-13T14:28:10;22.60;90.00
16076;DHT22;8142;48.242;11.644;2023-10-13T14:30:40;22.50;90.00
16076;DHT22;8142;48.242;11.644;2023-10-13T14:33:06;22.50;90.30
16076;DHT22;8142;48.242;11.644;2023-10-13T14:35:37;22.50;90.00
16076;DHT22;8142;48.242;11.644;2023-10-13T14:38:03;22.50;91.20
16076;DHT22;8142;48.242;11.644;2023-10-13T14:40:29;22.50;92.80
16076;DHT22;8142;48.242;11.644;2023-10-13T14:42:55;22.50;91.00
16076;DHT22;8142;48.242;11.644;2023-10-13T14:45:22;22.50;90.90
16076;DHT22;8142;48.242;11.644;2023-10-13T14:47:47;22.50;90.80
16076;DHT22;8142;48.242;11.644;2023-10-13T14:50:13;22.50;90.60
16076;DHT22;8142;48.242;11.644;2023-10-13T14:52:48;22.50;90.40
16076;DHT22;8142;48.242;11.644;2023-10-13T14:55:14;22.50;90.00
16076;DHT22;8142;48.242;11.644;2023-10-13T14:57:50;22.40;90.30
16076;DHT22;8142;48.242;11.644;2023-10-13T15:00:16;22.40;90.70
16076;DHT22;8142;48.242;11.644;2023-10-13T15:02:53;22.40;90.70
16076;DHT22;8142;48.242;11.644;2023-10-13T15:05:20;22.40;90.70
16076;DHT22;8142;48.242;11.644;2023-10-13T15:07:46;22.40;93.30
16076;DHT22;8142;48.242;11.644;2023-10-13T15:10:16;22.30;96.50
16076;DHT22;8142;48.242;11.644;2023-10-13T15:12:43;22.30;94.20
16076;DHT22;8142;48.242;11.644;2023-10-13T15:15:10;22.20;92.20
16076;DHT22;8142;48.242;11.644;2023-10-13T15:17:40;22.20;92.00
16076;DHT22;8142;48.242;11.644;2023-10-13T15:20:06;22.10;91.50
16076;DHT22;8142;48.242;11.644;2023-10-13T15:22:45;22.10;91.70
16076;DHT22;8142;48.242;11.644;2023-10-13T15:25:13;22.00;92.90
16076;DHT22;8142;48.242;11.644;2023-10-13T15:27:58;22.00;93.80
16076;DHT22;8142;48.242;11.644;2023-10-13T15:30:28;22.00;93.30
16076;DHT22;8142;48.242;11.644;2023-10-13T15:33:13;21.90;93.40
16076;DHT22;8142;48.242;11.644;2023-10-13T15:35:41;21.90;93.70
16076;DHT22;8142;48.242;11.644;2023-10-13T15:38:11;21.90;93.70
16076;DHT22;8142;48.242;11.644;2023-10-13T15:40:44;21.90;93.90
16076;DHT22;8142;48.242;11.644;2023-10-13T15:43:11;21.80;94.40
16076;DHT22;8142;48.242;11.644;2023-10-13T15:45:36;21.70;94.70
16076;DHT22;8142;48.242;11.644;2023-10-13T15:48:05;21.60;94.90
16076;DHT22;8142;48.242;11.644;2023-10-13T15:50:39;21.50;95.70
16076;DHT22;8142;48.242;11.644;2023-10-13T15:53:08;21.40;96.20
16076;DHT22;8142;48.242;11.644;2023-10-13T15:55:38;21.40;97.50
16076;DHT22;8142;48.242;11.644;2023-10-13T15:58:05;21.30;97.30
16076;DHT22;8142;48.242;11.644;2023-10-13T16:00:36;21.30;98.00
16076;DHT22;8142;48.242;11.644;2023-10-13T16:03:03;21.30;99.30
16076;DHT22;8142;48.242;11.644;2023-10-13T16:05:38;21.20;98.30
16076;DHT22;8142;48.242;11.644;2023-10-13T16:08:06;21.20;99.80
16076;DHT22;8142;48.242;11.644;2023-10-13T16:10:38;21.10;99.90
16076;DHT22;8142;48.242;11.644;2023-10-13T16:13:04;21.10;99.90
16076;DHT22;8142;48.242;11.644;2023-10-13T16:15:36;21.00;99.90
16076;DHT22;8142;48.242;11.644;2023-10-13T16:18:06;21.00;99.60
16076;DHT22;8142;48.242;11.644;2023-10-13T16:20:32;21.00;99.90
16076;DHT22;8142;48.242;11.644;2023-10-13T16:22:59;20.90;99.90
16076;DHT22;8142;48.242;11.644;2023-10-13T16:25:25;20.70;99.90